Portada
METAR-TAF:

METAR-TAF

Aeroports :

Odessa, Ucraïna

latitud: 46-26N, longitud: 030-46E, altitud: 42 m

Observació

L'informe es va fer fa 19 minuts, a les 19:30 UTC
Vent calma
Temperatura 15°C
Humitat 63%
Pressió 1021 hPa
Visibilitat 10 km o més
sense núvols per sota de 1500 mi sense presència de cumulonimbus.

METAR: UKOO 221930Z 00000MPS CAVOK 15/08 Q1021 R16/090060 NOSIG

Hora: 22:49 (19:49 UTC)

Pronòstic

L'informe es va fer fa 2 hores i 44 minuts, a les 17:05 UTC
Pronòstic vàlid del 22 a les 18 UTC al 23 a les 18 UTC
Vent 6 kt del Nord-Est
Visibilitat: 6000 m
Núvols disperses a una alçada de 1000 ft
Núvols disperses a una alçada de 2000 ft, Cumulonimbus.
Temporalment
l' 22 a les 18 UTC al 23 a les 04 UTC
Visibilitat: 2100 m
boirina, fum
Evolucionant progressivament
l' 23 a les 08 UTC al 23 a les 09 UTC
Vent 6 kt del Sud-Est amb ràfegues de 16 kt

TAF: UKOO 221705Z 2218/2318 04003MPS 6000 SCT010 SCT020CB TX26/2312Z TN14/2302Z TEMPO 2218/2304 2100 BR FU BECMG 2308/2309 14003G08MPS

Observacions i pronòstics meteorològics de més de 4000 aeroports (METAR i TAF).

Les estacions disponibles són els punts grocs i vermells al mapa.

Posi el ratolí al punt desitjat per veure el nom de l'estació.

Feu clic per veure les observacions i els pronòstics meteorològics.

Per canviar el mapa: feu clic els botons verds amb una creu de color negre per apropar; al botó verd amb un guió per allunyar la imatge; o en les fletxes verdes per a mapes adjacents.


METAR-TAF: